sensor_id;sensor_type;location;lat;lon;timestamp;P1;durP1;ratioP1;P2;durP2;ratioP2
65879;SDS011;52661;51.364;6.054;2022-11-20T00:00:46;11.50;;;5.00;;
65879;SDS011;52661;51.364;6.054;2022-11-20T00:03:12;12.67;;;5.03;;
65879;SDS011;52661;51.364;6.054;2022-11-20T00:05:37;11.38;;;4.57;;
65879;SDS011;52661;51.364;6.054;2022-11-20T00:08:03;10.88;;;4.15;;
65879;SDS011;52661;51.364;6.054;2022-11-20T00:10:29;14.23;;;4.63;;
65879;SDS011;52661;51.364;6.054;2022-11-20T00:12:54;13.20;;;4.95;;
65879;SDS011;52661;51.364;6.054;2022-11-20T00:15:19;10.90;;;5.03;;
65879;SDS011;52661;51.364;6.054;2022-11-20T00:17:45;11.48;;;5.03;;
65879;SDS011;52661;51.364;6.054;2022-11-20T00:20:10;11.33;;;4.53;;
65879;SDS011;52661;51.364;6.054;2022-11-20T00:22:36;12.30;;;5.32;;
65879;SDS011;52661;51.364;6.054;2022-11-20T00:25:01;11.20;;;4.82;;
65879;SDS011;52661;51.364;6.054;2022-11-20T00:27:26;12.77;;;5.10;;
65879;SDS011;52661;51.364;6.054;2022-11-20T00:29:52;10.83;;;4.73;;
65879;SDS011;52661;51.364;6.054;2022-11-20T00:32:17;10.27;;;4.37;;
65879;SDS011;52661;51.364;6.054;2022-11-20T00:34:42;12.18;;;4.80;;
65879;SDS011;52661;51.364;6.054;2022-11-20T00:37:08;19.17;;;5.13;;
65879;SDS011;52661;51.364;6.054;2022-11-20T00:39:33;12.27;;;5.25;;
65879;SDS011;52661;51.364;6.054;2022-11-20T00:41:58;14.23;;;5.43;;
65879;SDS011;52661;51.364;6.054;2022-11-20T00:44:24;12.87;;;4.83;;
65879;SDS011;52661;51.364;6.054;2022-11-20T00:46:49;12.10;;;4.43;;
65879;SDS011;52661;51.364;6.054;2022-11-20T00:49:14;15.00;;;4.70;;
65879;SDS011;52661;51.364;6.054;2022-11-20T00:51:39;10.90;;;5.20;;
65879;SDS011;52661;51.364;6.054;2022-11-20T00:54:05;11.97;;;4.63;;
65879;SDS011;52661;51.364;6.054;2022-11-20T00:56:30;11.93;;;3.90;;
65879;SDS011;52661;51.364;6.054;2022-11-20T00:58:58;12.10;;;4.87;;
65879;SDS011;52661;51.364;6.054;2022-11-20T01:01:25;10.90;;;4.35;;
65879;SDS011;52661;51.364;6.054;2022-11-20T01:03:51;13.32;;;4.65;;
65879;SDS011;52661;51.364;6.054;2022-11-20T01:06:19;13.07;;;4.60;;
65879;SDS011;52661;51.364;6.054;2022-11-20T01:08:46;13.25;;;5.00;;
65879;SDS011;52661;51.364;6.054;2022-11-20T01:11:13;12.07;;;4.53;;
65879;SDS011;52661;51.364;6.054;2022-11-20T01:16:11;12.75;;;4.85;;
65879;SDS011;52661;51.364;6.054;2022-11-20T01:18:37;12.93;;;5.15;;
65879;SDS011;52661;51.364;6.054;2022-11-20T01:21:05;12.20;;;5.15;;
65879;SDS011;52661;51.364;6.054;2022-11-20T01:23:37;14.00;;;5.22;;
65879;SDS011;52661;51.364;6.054;2022-11-20T01:26:05;11.48;;;4.82;;
65879;SDS011;52661;51.364;6.054;2022-11-20T01:28:32;14.30;;;5.22;;
65879;SDS011;52661;51.364;6.054;2022-11-20T01:30:58;11.52;;;5.18;;
65879;SDS011;52661;51.364;6.054;2022-11-20T01:33:24;11.32;;;5.10;;
65879;SDS011;52661;51.364;6.054;2022-11-20T01:35:50;12.07;;;4.50;;
65879;SDS011;52661;51.364;6.054;2022-11-20T01:38:16;12.05;;;4.75;;
65879;SDS011;52661;51.364;6.054;2022-11-20T01:40:42;11.07;;;5.43;;
65879;SDS011;52661;51.364;6.054;2022-11-20T01:43:14;12.50;;;5.60;;
65879;SDS011;52661;51.364;6.054;2022-11-20T01:48:34;12.93;;;5.53;;
65879;SDS011;52661;51.364;6.054;2022-11-20T01:51:04;13.10;;;5.00;;
65879;SDS011;52661;51.364;6.054;2022-11-20T01:53:32;13.23;;;4.80;;
65879;SDS011;52661;51.364;6.054;2022-11-20T01:56:01;13.15;;;5.00;;
65879;SDS011;52661;51.364;6.054;2022-11-20T01:58:31;12.70;;;5.55;;
65879;SDS011;52661;51.364;6.054;2022-11-20T02:01:00;13.60;;;5.43;;
65879;SDS011;52661;51.364;6.054;2022-11-20T02:03:26;10.85;;;5.75;;
65879;SDS011;52661;51.364;6.054;2022-11-20T02:06:02;11.15;;;4.95;;
65879;SDS011;52661;51.364;6.054;2022-11-20T02:08:35;12.18;;;5.40;;
65879;SDS011;52661;51.364;6.054;2022-11-20T02:11:01;10.70;;;4.50;;
65879;SDS011;52661;51.364;6.054;2022-11-20T02:13:26;13.93;;;5.60;;
65879;SDS011;52661;51.364;6.054;2022-11-20T02:18:34;14.27;;;4.53;;
65879;SDS011;52661;51.364;6.054;2022-11-20T02:21:02;11.27;;;4.67;;
65879;SDS011;52661;51.364;6.054;2022-11-20T02:26:26;11.55;;;5.38;;
65879;SDS011;52661;51.364;6.054;2022-11-20T02:28:54;10.82;;;4.47;;
65879;SDS011;52661;51.364;6.054;2022-11-20T02:31:20;12.40;;;4.78;;
65879;SDS011;52661;51.364;6.054;2022-11-20T02:33:45;10.77;;;4.73;;
65879;SDS011;52661;51.364;6.054;2022-11-20T02:36:11;10.53;;;4.73;;
65879;SDS011;52661;51.364;6.054;2022-11-20T02:38:41;9.38;;;4.13;;
65879;SDS011;52661;51.364;6.054;2022-11-20T02:41:07;10.90;;;4.43;;
65879;SDS011;52661;51.364;6.054;2022-11-20T02:43:32;11.57;;;4.23;;
65879;SDS011;52661;51.364;6.054;2022-11-20T02:45:58;11.00;;;5.18;;
65879;SDS011;52661;51.364;6.054;2022-11-20T02:48:23;12.68;;;5.03;;
65879;SDS011;52661;51.364;6.054;2022-11-20T02:50:48;13.40;;;4.90;;
65879;SDS011;52661;51.364;6.054;2022-11-20T02:53:14;11.70;;;4.87;;
65879;SDS011;52661;51.364;6.054;2022-11-20T02:55:39;10.33;;;4.70;;
65879;SDS011;52661;51.364;6.054;2022-11-20T02:58:04;13.23;;;4.93;;
65879;SDS011;52661;51.364;6.054;2022-11-20T03:00:30;14.57;;;4.75;;
65879;SDS011;52661;51.364;6.054;2022-11-20T03:02:55;12.27;;;4.80;;
65879;SDS011;52661;51.364;6.054;2022-11-20T03:05:20;10.60;;;4.60;;
65879;SDS011;52661;51.364;6.054;2022-11-20T03:07:46;13.33;;;4.50;;
65879;SDS011;52661;51.364;6.054;2022-11-20T03:10:11;10.63;;;4.28;;
65879;SDS011;52661;51.364;6.054;2022-11-20T03:12:36;13.47;;;5.50;;
65879;SDS011;52661;51.364;6.054;2022-11-20T03:15:02;9.83;;;4.53;;
65879;SDS011;52661;51.364;6.054;2022-11-20T03:17:27;11.90;;;4.57;;
65879;SDS011;52661;51.364;6.054;2022-11-20T03:19:54;10.35;;;5.03;;
65879;SDS011;52661;51.364;6.054;2022-11-20T03:22:19;10.97;;;4.27;;
65879;SDS011;52661;51.364;6.054;2022-11-20T03:24:44;13.30;;;4.77;;
65879;SDS011;52661;51.364;6.054;2022-11-20T03:27:10;11.87;;;4.47;;
65879;SDS011;52661;51.364;6.054;2022-11-20T03:29:35;13.63;;;4.20;;
65879;SDS011;52661;51.364;6.054;2022-11-20T03:32:00;9.85;;;4.80;;
65879;SDS011;52661;51.364;6.054;2022-11-20T03:34:26;10.88;;;4.93;;
65879;SDS011;52661;51.364;6.054;2022-11-20T03:36:51;13.40;;;4.77;;
65879;SDS011;52661;51.364;6.054;2022-11-20T03:39:16;13.37;;;4.93;;
65879;SDS011;52661;51.364;6.054;2022-11-20T03:41:41;13.80;;;4.57;;
65879;SDS011;52661;51.364;6.054;2022-11-20T03:44:08;11.32;;;5.35;;
65879;SDS011;52661;51.364;6.054;2022-11-20T03:46:35;11.65;;;4.72;;
65879;SDS011;52661;51.364;6.054;2022-11-20T03:49:00;11.48;;;4.63;;
65879;SDS011;52661;51.364;6.054;2022-11-20T03:51:30;11.15;;;4.78;;
65879;SDS011;52661;51.364;6.054;2022-11-20T03:53:58;11.75;;;4.55;;
65879;SDS011;52661;51.364;6.054;2022-11-20T03:58:52;10.40;;;4.63;;
65879;SDS011;52661;51.364;6.054;2022-11-20T04:01:24;13.57;;;5.30;;
65879;SDS011;52661;51.364;6.054;2022-11-20T04:03:51;11.55;;;4.53;;
65879;SDS011;52661;51.364;6.054;2022-11-20T04:06:21;11.48;;;4.93;;
65879;SDS011;52661;51.364;6.054;2022-11-20T04:08:49;12.48;;;5.47;;
65879;SDS011;52661;51.364;6.054;2022-11-20T04:13:51;13.90;;;5.32;;
65879;SDS011;52661;51.364;6.054;2022-11-20T04:16:18;10.55;;;4.50;;
65879;SDS011;52661;51.364;6.054;2022-11-20T04:18:44;13.48;;;5.10;;
65879;SDS011;52661;51.364;6.054;2022-11-20T04:21:10;13.90;;;4.72;;
65879;SDS011;52661;51.364;6.054;2022-11-20T04:23:35;10.18;;;4.10;;
65879;SDS011;52661;51.364;6.054;2022-11-20T04:26:06;15.23;;;4.82;;
65879;SDS011;52661;51.364;6.054;2022-11-20T04:28:33;8.93;;;4.40;;
65879;SDS011;52661;51.364;6.054;2022-11-20T04:31:03;13.07;;;4.20;;
65879;SDS011;52661;51.364;6.054;2022-11-20T04:33:33;13.52;;;4.65;;
65879;SDS011;52661;51.364;6.054;2022-11-20T04:36:00;12.32;;;5.05;;
65879;SDS011;52661;51.364;6.054;2022-11-20T04:38:27;12.00;;;5.15;;
65879;SDS011;52661;51.364;6.054;2022-11-20T04:40:55;12.30;;;5.20;;
65879;SDS011;52661;51.364;6.054;2022-11-20T04:43:22;12.18;;;5.55;;
65879;SDS011;52661;51.364;6.054;2022-11-20T04:45:51;13.37;;;4.80;;
65879;SDS011;52661;51.364;6.054;2022-11-20T04:48:17;11.68;;;5.93;;
65879;SDS011;52661;51.364;6.054;2022-11-20T04:50:42;13.43;;;4.97;;
65879;SDS011;52661;51.364;6.054;2022-11-20T04:53:07;12.77;;;4.77;;
65879;SDS011;52661;51.364;6.054;2022-11-20T04:55:32;12.60;;;5.50;;
65879;SDS011;52661;51.364;6.054;2022-11-20T04:57:58;13.77;;;5.90;;
65879;SDS011;52661;51.364;6.054;2022-11-20T05:00:23;12.98;;;5.47;;
65879;SDS011;52661;51.364;6.054;2022-11-20T05:02:49;11.87;;;4.50;;
65879;SDS011;52661;51.364;6.054;2022-11-20T05:05:14;13.37;;;5.53;;
65879;SDS011;52661;51.364;6.054;2022-11-20T05:07:39;12.38;;;6.22;;
65879;SDS011;52661;51.364;6.054;2022-11-20T05:10:05;11.67;;;4.17;;
65879;SDS011;52661;51.364;6.054;2022-11-20T05:12:31;14.73;;;5.70;;
65879;SDS011;52661;51.364;6.054;2022-11-20T05:14:56;12.77;;;5.72;;
65879;SDS011;52661;51.364;6.054;2022-11-20T05:17:21;15.40;;;5.60;;
65879;SDS011;52661;51.364;6.054;2022-11-20T05:19:46;13.00;;;4.97;;
65879;SDS011;52661;51.364;6.054;2022-11-20T05:22:12;11.77;;;4.90;;
65879;SDS011;52661;51.364;6.054;2022-11-20T05:24:37;14.87;;;5.33;;
65879;SDS011;52661;51.364;6.054;2022-11-20T05:27:02;13.47;;;5.83;;
65879;SDS011;52661;51.364;6.054;2022-11-20T05:29:28;13.32;;;4.95;;
65879;SDS011;52661;51.364;6.054;2022-11-20T05:31:53;15.10;;;5.80;;
65879;SDS011;52661;51.364;6.054;2022-11-20T05:34:18;13.30;;;5.37;;
65879;SDS011;52661;51.364;6.054;2022-11-20T05:36:43;15.90;;;5.93;;
65879;SDS011;52661;51.364;6.054;2022-11-20T05:39:09;12.83;;;5.47;;
65879;SDS011;52661;51.364;6.054;2022-11-20T05:41:34;13.90;;;5.57;;
65879;SDS011;52661;51.364;6.054;2022-11-20T05:43:59;12.67;;;5.13;;
65879;SDS011;52661;51.364;6.054;2022-11-20T05:46:25;14.00;;;5.70;;
65879;SDS011;52661;51.364;6.054;2022-11-20T05:48:50;13.25;;;5.28;;
65879;SDS011;52661;51.364;6.054;2022-11-20T05:51:16;14.63;;;5.67;;
65879;SDS011;52661;51.364;6.054;2022-11-20T05:53:43;10.23;;;4.45;;
65879;SDS011;52661;51.364;6.054;2022-11-20T05:56:10;14.55;;;5.55;;
65879;SDS011;52661;51.364;6.054;2022-11-20T05:58:38;10.95;;;4.90;;
65879;SDS011;52661;51.364;6.054;2022-11-20T06:01:25;14.15;;;4.85;;
65879;SDS011;52661;51.364;6.054;2022-11-20T06:03:50;12.07;;;5.18;;
65879;SDS011;52661;51.364;6.054;2022-11-20T06:06:16;14.27;;;5.32;;
65879;SDS011;52661;51.364;6.054;2022-11-20T06:08:42;16.27;;;5.05;;
65879;SDS011;52661;51.364;6.054;2022-11-20T06:11:09;17.00;;;5.35;;
65879;SDS011;52661;51.364;6.054;2022-11-20T06:13:37;13.68;;;4.78;;
65879;SDS011;52661;51.364;6.054;2022-11-20T06:16:02;14.98;;;4.75;;
65879;SDS011;52661;51.364;6.054;2022-11-20T06:18:28;11.52;;;4.82;;
65879;SDS011;52661;51.364;6.054;2022-11-20T06:21:01;15.20;;;5.03;;
65879;SDS011;52661;51.364;6.054;2022-11-20T06:23:29;15.90;;;6.10;;
65879;SDS011;52661;51.364;6.054;2022-11-20T06:25:55;11.82;;;5.30;;
65879;SDS011;52661;51.364;6.054;2022-11-20T06:28:20;15.77;;;5.73;;
65879;SDS011;52661;51.364;6.054;2022-11-20T06:30:47;16.20;;;4.95;;
65879;SDS011;52661;51.364;6.054;2022-11-20T06:33:12;14.03;;;5.27;;
65879;SDS011;52661;51.364;6.054;2022-11-20T06:35:37;11.03;;;4.77;;
65879;SDS011;52661;51.364;6.054;2022-11-20T06:38:02;13.43;;;4.77;;
65879;SDS011;52661;51.364;6.054;2022-11-20T06:40:28;10.73;;;4.87;;
65879;SDS011;52661;51.364;6.054;2022-11-20T06:42:53;17.27;;;5.80;;
65879;SDS011;52661;51.364;6.054;2022-11-20T06:45:19;12.43;;;4.60;;
65879;SDS011;52661;51.364;6.054;2022-11-20T06:47:45;12.68;;;5.22;;
65879;SDS011;52661;51.364;6.054;2022-11-20T06:50:10;14.30;;;5.37;;
65879;SDS011;52661;51.364;6.054;2022-11-20T06:52:36;15.13;;;5.27;;
65879;SDS011;52661;51.364;6.054;2022-11-20T06:55:01;13.90;;;5.70;;
65879;SDS011;52661;51.364;6.054;2022-11-20T06:57:26;13.27;;;5.95;;
65879;SDS011;52661;51.364;6.054;2022-11-20T06:59:52;13.57;;;5.63;;
65879;SDS011;52661;51.364;6.054;2022-11-20T07:02:17;13.30;;;5.27;;
65879;SDS011;52661;51.364;6.054;2022-11-20T07:04:42;14.17;;;5.47;;
65879;SDS011;52661;51.364;6.054;2022-11-20T07:07:08;12.13;;;5.47;;
65879;SDS011;52661;51.364;6.054;2022-11-20T07:09:33;14.02;;;5.82;;
65879;SDS011;52661;51.364;6.054;2022-11-20T07:11:59;14.23;;;5.25;;
65879;SDS011;52661;51.364;6.054;2022-11-20T07:14:24;12.98;;;6.28;;
65879;SDS011;52661;51.364;6.054;2022-11-20T07:16:49;10.75;;;5.35;;
65879;SDS011;52661;51.364;6.054;2022-11-20T07:19:15;12.37;;;5.97;;
65879;SDS011;52661;51.364;6.054;2022-11-20T07:21:40;12.27;;;5.67;;
65879;SDS011;52661;51.364;6.054;2022-11-20T07:24:05;11.40;;;5.33;;
65879;SDS011;52661;51.364;6.054;2022-11-20T07:26:31;12.60;;;5.32;;
65879;SDS011;52661;51.364;6.054;2022-11-20T07:28:56;12.82;;;5.55;;
65879;SDS011;52661;51.364;6.054;2022-11-20T07:31:21;12.43;;;5.57;;
65879;SDS011;52661;51.364;6.054;2022-11-20T07:33:47;13.40;;;5.32;;
65879;SDS011;52661;51.364;6.054;2022-11-20T07:36:12;12.95;;;5.55;;
65879;SDS011;52661;51.364;6.054;2022-11-20T07:38:37;10.90;;;5.43;;
65879;SDS011;52661;51.364;6.054;2022-11-20T07:41:03;13.65;;;5.20;;
65879;SDS011;52661;51.364;6.054;2022-11-20T07:43:29;13.93;;;5.97;;
65879;SDS011;52661;51.364;6.054;2022-11-20T07:45:55;10.35;;;5.63;;
65879;SDS011;52661;51.364;6.054;2022-11-20T07:48:21;13.88;;;6.43;;
65879;SDS011;52661;51.364;6.054;2022-11-20T07:50:46;13.90;;;5.28;;
65879;SDS011;52661;51.364;6.054;2022-11-20T07:53:12;14.67;;;5.67;;
65879;SDS011;52661;51.364;6.054;2022-11-20T07:55:38;12.10;;;4.72;;
65879;SDS011;52661;51.364;6.054;2022-11-20T07:58:04;13.23;;;6.22;;
65879;SDS011;52661;51.364;6.054;2022-11-20T08:00:29;14.30;;;5.33;;
65879;SDS011;52661;51.364;6.054;2022-11-20T08:02:55;12.45;;;5.32;;
65879;SDS011;52661;51.364;6.054;2022-11-20T08:05:21;15.43;;;5.75;;
65879;SDS011;52661;51.364;6.054;2022-11-20T08:07:46;14.35;;;5.32;;
65879;SDS011;52661;51.364;6.054;2022-11-20T08:10:13;12.30;;;5.03;;
65879;SDS011;52661;51.364;6.054;2022-11-20T08:12:47;10.80;;;4.55;;
65879;SDS011;52661;51.364;6.054;2022-11-20T08:15:33;12.77;;;5.75;;
65879;SDS011;52661;51.364;6.054;2022-11-20T08:18:03;12.90;;;5.72;;
65879;SDS011;52661;51.364;6.054;2022-11-20T08:20:30;13.75;;;6.20;;
65879;SDS011;52661;51.364;6.054;2022-11-20T08:22:59;12.30;;;5.38;;
65879;SDS011;52661;51.364;6.054;2022-11-20T08:25:30;13.88;;;5.07;;
65879;SDS011;52661;51.364;6.054;2022-11-20T08:27:57;13.65;;;5.85;;
65879;SDS011;52661;51.364;6.054;2022-11-20T08:30:26;16.38;;;5.40;;
65879;SDS011;52661;51.364;6.054;2022-11-20T08:32:52;14.32;;;5.50;;
65879;SDS011;52661;51.364;6.054;2022-11-20T08:35:17;13.73;;;6.25;;
65879;SDS011;52661;51.364;6.054;2022-11-20T08:37:45;11.50;;;4.75;;
65879;SDS011;52661;51.364;6.054;2022-11-20T08:40:11;13.13;;;5.43;;
65879;SDS011;52661;51.364;6.054;2022-11-20T08:42:37;14.00;;;5.38;;
65879;SDS011;52661;51.364;6.054;2022-11-20T08:45:02;12.70;;;5.23;;
65879;SDS011;52661;51.364;6.054;2022-11-20T08:47:28;12.75;;;5.45;;
65879;SDS011;52661;51.364;6.054;2022-11-20T08:49:53;19.05;;;6.40;;
65879;SDS011;52661;51.364;6.054;2022-11-20T08:52:19;17.10;;;6.10;;
65879;SDS011;52661;51.364;6.054;2022-11-20T08:54:44;13.97;;;6.00;;
65879;SDS011;52661;51.364;6.054;2022-11-20T08:57:09;13.80;;;6.10;;
65879;SDS011;52661;51.364;6.054;2022-11-20T08:59:34;15.67;;;6.73;;
65879;SDS011;52661;51.364;6.054;2022-11-20T09:02:00;13.03;;;5.50;;
65879;SDS011;52661;51.364;6.054;2022-11-20T09:04:25;16.87;;;6.30;;
65879;SDS011;52661;51.364;6.054;2022-11-20T09:06:50;12.60;;;4.77;;
65879;SDS011;52661;51.364;6.054;2022-11-20T09:09:16;12.02;;;6.47;;
65879;SDS011;52661;51.364;6.054;2022-11-20T09:11:43;14.95;;;5.40;;
65879;SDS011;52661;51.364;6.054;2022-11-20T09:14:08;18.30;;;5.83;;
65879;SDS011;52661;51.364;6.054;2022-11-20T09:16:34;17.70;;;6.43;;
65879;SDS011;52661;51.364;6.054;2022-11-20T09:18:59;11.63;;;5.07;;
65879;SDS011;52661;51.364;6.054;2022-11-20T09:21:24;15.05;;;5.72;;
65879;SDS011;52661;51.364;6.054;2022-11-20T09:23:50;17.57;;;6.13;;
65879;SDS011;52661;51.364;6.054;2022-11-20T09:26:15;21.33;;;5.80;;
65879;SDS011;52661;51.364;6.054;2022-11-20T09:28:40;16.07;;;6.20;;
65879;SDS011;52661;51.364;6.054;2022-11-20T09:31:11;17.98;;;6.43;;
65879;SDS011;52661;51.364;6.054;2022-11-20T09:33:48;14.60;;;6.05;;
65879;SDS011;52661;51.364;6.054;2022-11-20T09:36:13;19.70;;;6.40;;
65879;SDS011;52661;51.364;6.054;2022-11-20T09:38:39;20.58;;;6.90;;
65879;SDS011;52661;51.364;6.054;2022-11-20T09:41:05;19.17;;;7.00;;
65879;SDS011;52661;51.364;6.054;2022-11-20T09:46:29;18.13;;;6.32;;
65879;SDS011;52661;51.364;6.054;2022-11-20T09:55:16;16.70;;;6.50;;
65879;SDS011;52661;51.364;6.054;2022-11-20T09:57:45;17.23;;;5.68;;
65879;SDS011;52661;51.364;6.054;2022-11-20T10:00:13;19.42;;;7.68;;
65879;SDS011;52661;51.364;6.054;2022-11-20T10:05:18;20.63;;;7.68;;
65879;SDS011;52661;51.364;6.054;2022-11-20T10:10:45;27.60;;;8.20;;
65879;SDS011;52661;51.364;6.054;2022-11-20T10:13:17;27.13;;;9.30;;
65879;SDS011;52661;51.364;6.054;2022-11-20T10:24:39;30.77;;;9.45;;
65879;SDS011;52661;51.364;6.054;2022-11-20T10:32:35;30.15;;;9.85;;
65879;SDS011;52661;51.364;6.054;2022-11-20T10:35:14;37.25;;;10.32;;
65879;SDS011;52661;51.364;6.054;2022-11-20T10:37:46;32.00;;;10.77;;
65879;SDS011;52661;51.364;6.054;2022-11-20T10:40:20;35.53;;;11.18;;
65879;SDS011;52661;51.364;6.054;2022-11-20T10:42:48;36.35;;;11.07;;
65879;SDS011;52661;51.364;6.054;2022-11-20T10:47:56;38.15;;;11.50;;
65879;SDS011;52661;51.364;6.054;2022-11-20T10:50:35;37.65;;;9.90;;
65879;SDS011;52661;51.364;6.054;2022-11-20T10:55:55;32.58;;;11.57;;
65879;SDS011;52661;51.364;6.054;2022-11-20T11:01:03;30.88;;;8.75;;
65879;SDS011;52661;51.364;6.054;2022-11-20T11:03:30;30.80;;;11.05;;
65879;SDS011;52661;51.364;6.054;2022-11-20T11:08:46;31.23;;;9.35;;
65879;SDS011;52661;51.364;6.054;2022-11-20T11:11:30;33.63;;;10.07;;
65879;SDS011;52661;51.364;6.054;2022-11-20T11:14:07;29.30;;;9.50;;
65879;SDS011;52661;51.364;6.054;2022-11-20T11:16:48;30.70;;;8.63;;
65879;SDS011;52661;51.364;6.054;2022-11-20T11:19:16;34.00;;;10.32;;
65879;SDS011;52661;51.364;6.054;2022-11-20T11:21:51;25.85;;;8.88;;
65879;SDS011;52661;51.364;6.054;2022-11-20T11:24:21;25.42;;;9.15;;
65879;SDS011;52661;51.364;6.054;2022-11-20T11:27:03;31.77;;;9.35;;
65879;SDS011;52661;51.364;6.054;2022-11-20T11:29:36;21.95;;;6.30;;
65879;SDS011;52661;51.364;6.054;2022-11-20T11:32:14;27.20;;;8.77;;
65879;SDS011;52661;51.364;6.054;2022-11-20T11:34:42;27.63;;;7.47;;
65879;SDS011;52661;51.364;6.054;2022-11-20T11:37:26;25.27;;;9.10;;
65879;SDS011;52661;51.364;6.054;2022-11-20T11:40:00;34.83;;;9.43;;
65879;SDS011;52661;51.364;6.054;2022-11-20T11:42:27;23.67;;;8.02;;
65879;SDS011;52661;51.364;6.054;2022-11-20T11:44:53;23.33;;;7.35;;
65879;SDS011;52661;51.364;6.054;2022-11-20T11:47:37;29.00;;;8.75;;
65879;SDS011;52661;51.364;6.054;2022-11-20T11:52:36;23.30;;;8.27;;
65879;SDS011;52661;51.364;6.054;2022-11-20T11:55:09;28.52;;;9.02;;
65879;SDS011;52661;51.364;6.054;2022-11-20T12:00:34;23.27;;;7.53;;
65879;SDS011;52661;51.364;6.054;2022-11-20T12:03:36;29.88;;;10.50;;
65879;SDS011;52661;51.364;6.054;2022-11-20T12:06:01;26.95;;;9.23;;
65879;SDS011;52661;51.364;6.054;2022-11-20T12:08:56;28.63;;;8.27;;
65879;SDS011;52661;51.364;6.054;2022-11-20T12:14:36;25.85;;;7.35;;
65879;SDS011;52661;51.364;6.054;2022-11-20T12:17:04;30.13;;;8.50;;
65879;SDS011;52661;51.364;6.054;2022-11-20T12:19:30;25.98;;;8.77;;
65879;SDS011;52661;51.364;6.054;2022-11-20T12:25:00;22.58;;;8.18;;
65879;SDS011;52661;51.364;6.054;2022-11-20T12:36:29;28.85;;;9.25;;
65879;SDS011;52661;51.364;6.054;2022-11-20T12:39:16;22.88;;;8.02;;
65879;SDS011;52661;51.364;6.054;2022-11-20T12:42:05;21.52;;;7.72;;
65879;SDS011;52661;51.364;6.054;2022-11-20T12:56:37;25.92;;;9.38;;
65879;SDS011;52661;51.364;6.054;2022-11-20T13:01:52;26.45;;;9.45;;
65879;SDS011;52661;51.364;6.054;2022-11-20T13:04:51;25.67;;;8.15;;
65879;SDS011;52661;51.364;6.054;2022-11-20T13:07:18;20.23;;;9.00;;
65879;SDS011;52661;51.364;6.054;2022-11-20T13:09:46;24.48;;;8.80;;
65879;SDS011;52661;51.364;6.054;2022-11-20T13:15:02;26.13;;;9.23;;
65879;SDS011;52661;51.364;6.054;2022-11-20T13:17:43;26.33;;;8.82;;
65879;SDS011;52661;51.364;6.054;2022-11-20T13:20:17;28.63;;;8.45;;
65879;SDS011;52661;51.364;6.054;2022-11-20T13:22:44;23.75;;;8.43;;
65879;SDS011;52661;51.364;6.054;2022-11-20T13:25:31;21.15;;;7.10;;
65879;SDS011;52661;51.364;6.054;2022-11-20T13:28:01;24.52;;;9.82;;
65879;SDS011;52661;51.364;6.054;2022-11-20T13:30:30;19.85;;;8.25;;
65879;SDS011;52661;51.364;6.054;2022-11-20T13:36:05;27.20;;;10.15;;
65879;SDS011;52661;51.364;6.054;2022-11-20T13:38:51;29.05;;;8.90;;
65879;SDS011;52661;51.364;6.054;2022-11-20T13:41:25;23.17;;;6.10;;
65879;SDS011;52661;51.364;6.054;2022-11-20T13:46:35;22.25;;;7.38;;
65879;SDS011;52661;51.364;6.054;2022-11-20T13:49:08;29.13;;;9.18;;
65879;SDS011;52661;51.364;6.054;2022-11-20T13:51:48;24.05;;;9.93;;
65879;SDS011;52661;51.364;6.054;2022-11-20T14:02:26;24.17;;;8.20;;
65879;SDS011;52661;51.364;6.054;2022-11-20T14:04:54;26.42;;;8.90;;
65879;SDS011;52661;51.364;6.054;2022-11-20T14:07:24;23.55;;;7.95;;
65879;SDS011;52661;51.364;6.054;2022-11-20T14:09:56;26.95;;;8.43;;
65879;SDS011;52661;51.364;6.054;2022-11-20T14:12:26;28.10;;;8.80;;
65879;SDS011;52661;51.364;6.054;2022-11-20T14:14:56;26.65;;;9.32;;
65879;SDS011;52661;51.364;6.054;2022-11-20T14:17:23;24.05;;;7.85;;
65879;SDS011;52661;51.364;6.054;2022-11-20T14:19:55;19.85;;;5.65;;
65879;SDS011;52661;51.364;6.054;2022-11-20T14:22:25;24.85;;;9.50;;
65879;SDS011;52661;51.364;6.054;2022-11-20T14:25:03;25.77;;;8.55;;
65879;SDS011;52661;51.364;6.054;2022-11-20T14:27:36;25.60;;;9.52;;
65879;SDS011;52661;51.364;6.054;2022-11-20T14:30:04;26.38;;;8.32;;
65879;SDS011;52661;51.364;6.054;2022-11-20T14:32:30;27.20;;;8.40;;
65879;SDS011;52661;51.364;6.054;2022-11-20T14:34:57;26.63;;;9.18;;
65879;SDS011;52661;51.364;6.054;2022-11-20T14:37:27;24.50;;;8.80;;
65879;SDS011;52661;51.364;6.054;2022-11-20T14:39:58;26.75;;;8.52;;
65879;SDS011;52661;51.364;6.054;2022-11-20T14:42:27;23.25;;;8.98;;
65879;SDS011;52661;51.364;6.054;2022-11-20T14:44:57;22.98;;;8.18;;
65879;SDS011;52661;51.364;6.054;2022-11-20T14:47:27;25.20;;;8.35;;
65879;SDS011;52661;51.364;6.054;2022-11-20T14:49:54;27.67;;;10.32;;
65879;SDS011;52661;51.364;6.054;2022-11-20T14:52:22;26.25;;;8.80;;
65879;SDS011;52661;51.364;6.054;2022-11-20T14:54:49;25.88;;;8.07;;
65879;SDS011;52661;51.364;6.054;2022-11-20T14:59:50;24.08;;;7.95;;
65879;SDS011;52661;51.364;6.054;2022-11-20T15:02:15;24.70;;;7.73;;
65879;SDS011;52661;51.364;6.054;2022-11-20T15:04:45;22.90;;;8.07;;
65879;SDS011;52661;51.364;6.054;2022-11-20T15:07:24;26.58;;;8.95;;
65879;SDS011;52661;51.364;6.054;2022-11-20T15:12:31;23.48;;;7.28;;
65879;SDS011;52661;51.364;6.054;2022-11-20T15:14:58;26.67;;;8.48;;
65879;SDS011;52661;51.364;6.054;2022-11-20T15:17:25;24.38;;;8.20;;
65879;SDS011;52661;51.364;6.054;2022-11-20T15:19:51;26.25;;;8.80;;
65879;SDS011;52661;51.364;6.054;2022-11-20T15:22:17;25.58;;;9.77;;
65879;SDS011;52661;51.364;6.054;2022-11-20T15:24:42;26.40;;;9.37;;
65879;SDS011;52661;51.364;6.054;2022-11-20T15:27:08;24.57;;;8.13;;
65879;SDS011;52661;51.364;6.054;2022-11-20T15:29:34;21.23;;;7.78;;
65879;SDS011;52661;51.364;6.054;2022-11-20T15:31:59;24.42;;;8.23;;
65879;SDS011;52661;51.364;6.054;2022-11-20T15:34:26;29.05;;;8.88;;
65879;SDS011;52661;51.364;6.054;2022-11-20T15:36:52;27.52;;;9.18;;
65879;SDS011;52661;51.364;6.054;2022-11-20T15:39:18;22.77;;;7.97;;
65879;SDS011;52661;51.364;6.054;2022-11-20T15:41:43;15.57;;;5.95;;
65879;SDS011;52661;51.364;6.054;2022-11-20T15:44:09;26.35;;;8.30;;
65879;SDS011;52661;51.364;6.054;2022-11-20T15:46:36;22.97;;;8.80;;
65879;SDS011;52661;51.364;6.054;2022-11-20T15:49:05;21.90;;;6.90;;
65879;SDS011;52661;51.364;6.054;2022-11-20T15:51:38;28.50;;;9.98;;
65879;SDS011;52661;51.364;6.054;2022-11-20T15:54:10;30.25;;;9.95;;
65879;SDS011;52661;51.364;6.054;2022-11-20T15:56:37;24.27;;;7.97;;
65879;SDS011;52661;51.364;6.054;2022-11-20T15:59:02;28.03;;;8.90;;
65879;SDS011;52661;51.364;6.054;2022-11-20T16:01:28;25.20;;;8.70;;
65879;SDS011;52661;51.364;6.054;2022-11-20T16:03:53;27.30;;;8.45;;
65879;SDS011;52661;51.364;6.054;2022-11-20T16:06:19;18.35;;;7.32;;
65879;SDS011;52661;51.364;6.054;2022-11-20T16:08:44;22.15;;;6.20;;
65879;SDS011;52661;51.364;6.054;2022-11-20T16:11:11;24.10;;;8.05;;
65879;SDS011;52661;51.364;6.054;2022-11-20T16:13:38;20.27;;;8.43;;
65879;SDS011;52661;51.364;6.054;2022-11-20T16:16:22;19.98;;;7.05;;
65879;SDS011;52661;51.364;6.054;2022-11-20T16:18:56;17.52;;;6.60;;
65879;SDS011;52661;51.364;6.054;2022-11-20T16:21:22;19.95;;;7.00;;
65879;SDS011;52661;51.364;6.054;2022-11-20T16:23:57;18.63;;;6.82;;
65879;SDS011;52661;51.364;6.054;2022-11-20T16:26:23;21.70;;;7.75;;
65879;SDS011;52661;51.364;6.054;2022-11-20T16:28:49;21.30;;;7.00;;
65879;SDS011;52661;51.364;6.054;2022-11-20T16:31:17;17.45;;;5.13;;